createdAt,value
2018-05-25T00:02:12.129Z,1.83
2018-05-25T00:04:43.048Z,1.60
2018-05-25T00:07:13.404Z,1.70
2018-05-25T00:09:45.036Z,1.83
2018-05-25T00:12:15.252Z,1.60
2018-05-25T00:14:49.300Z,1.70
2018-05-25T00:17:20.426Z,1.77
2018-05-25T00:19:51.743Z,1.73
2018-05-25T00:22:21.600Z,1.70
2018-05-25T00:24:51.202Z,1.50
2018-05-25T00:27:22.600Z,1.47
2018-05-25T00:29:53.336Z,1.50
2018-05-25T00:32:23.005Z,2.00
2018-05-25T00:34:53.196Z,1.60
2018-05-25T00:37:22.889Z,1.73
2018-05-25T00:39:53.340Z,1.67
2018-05-25T00:42:22.828Z,1.37
2018-05-25T00:44:52.365Z,1.90
2018-05-25T00:47:22.629Z,2.10
2018-05-25T00:49:52.592Z,1.67
2018-05-25T00:52:23.120Z,1.60
2018-05-25T00:54:58.584Z,1.67
2018-05-25T00:57:30.344Z,1.70
2018-05-25T00:59:59.727Z,1.50
2018-05-25T01:02:29.753Z,1.77
2018-05-25T01:05:00.816Z,2.00
2018-05-25T01:07:31.349Z,1.50
2018-05-25T01:10:00.884Z,1.50
2018-05-25T01:12:31.132Z,1.53
2018-05-25T01:15:01.405Z,1.60
2018-05-25T01:17:32.201Z,1.43
2018-05-25T01:20:01.760Z,1.80
2018-05-25T01:22:31.350Z,1.83
2018-05-25T01:25:01.637Z,1.67
2018-05-25T01:27:31.323Z,1.50
2018-05-25T01:30:02.414Z,1.67
2018-05-25T01:32:32.044Z,1.40
2018-05-25T01:35:02.764Z,1.50
2018-05-25T01:37:34.390Z,2.00
2018-05-25T01:40:07.639Z,2.00
2018-05-25T01:42:37.732Z,1.93
2018-05-25T01:45:08.144Z,2.10
2018-05-25T01:47:38.352Z,1.67
2018-05-25T01:50:08.412Z,1.47
2018-05-25T01:52:38.511Z,1.73
2018-05-25T01:55:08.706Z,2.00
2018-05-25T01:57:38.393Z,1.87
2018-05-25T02:00:08.564Z,1.77
2018-05-25T02:02:38.662Z,1.80
2018-05-25T02:05:07.875Z,1.50
2018-05-25T02:07:37.456Z,2.00
2018-05-25T02:10:08.804Z,1.53
2018-05-25T02:12:39.242Z,1.83
2018-05-25T02:15:08.972Z,2.17
2018-05-25T02:17:40.115Z,1.80
2018-05-25T02:20:11.722Z,1.70
2018-05-25T02:22:42.133Z,1.90
2018-05-25T02:25:11.726Z,2.03
2018-05-25T02:27:42.330Z,1.77
2018-05-25T02:30:12.996Z,1.63
2018-05-25T02:32:43.311Z,1.87
2018-05-25T02:35:12.596Z,2.10
2018-05-25T02:37:42.717Z,1.77
2018-05-25T02:40:12.841Z,2.00
2018-05-25T02:42:43.421Z,2.10
2018-05-25T02:45:13.908Z,1.90
2018-05-25T02:47:43.737Z,2.10
2018-05-25T02:50:14.252Z,1.90
2018-05-25T02:52:43.761Z,1.90
2018-05-25T02:55:15.065Z,1.70
2018-05-25T02:57:45.257Z,2.00
2018-05-25T03:00:16.201Z,2.03
2018-05-25T03:02:46.460Z,1.50
2018-05-25T03:05:17.707Z,1.40
2018-05-25T03:07:48.433Z,1.80
2018-05-25T03:10:18.747Z,2.10
2018-05-25T03:12:49.345Z,1.93
2018-05-25T03:15:19.171Z,1.80
2018-05-25T03:17:49.596Z,1.63
2018-05-25T03:20:19.513Z,2.00
2018-05-25T03:22:50.704Z,1.97
2018-05-25T03:25:20.937Z,1.73
2018-05-25T03:27:51.397Z,2.10
2018-05-25T03:30:21.600Z,1.77
2018-05-25T03:32:51.821Z,2.03
2018-05-25T03:35:23.856Z,2.00
2018-05-25T03:38:01.080Z,2.00
2018-05-25T03:40:31.500Z,2.20
2018-05-25T03:43:01.783Z,1.57
2018-05-25T03:45:31.849Z,1.80
2018-05-25T03:48:02.904Z,1.83
2018-05-25T03:50:33.106Z,1.90
2018-05-25T03:53:02.986Z,2.07
2018-05-25T03:55:33.650Z,2.43
2018-05-25T03:58:03.867Z,2.13
2018-05-25T04:00:39.496Z,2.53
2018-05-25T04:03:11.479Z,2.10
2018-05-25T04:05:41.280Z,1.67
2018-05-25T04:08:11.722Z,2.30
2018-05-25T04:10:41.423Z,1.90
2018-05-25T04:13:12.533Z,1.70
2018-05-25T04:15:44.696Z,1.47
2018-05-25T04:18:14.612Z,1.80
2018-05-25T04:20:46.045Z,2.60
2018-05-25T04:23:16.236Z,1.80
2018-05-25T04:25:45.477Z,1.80
2018-05-25T04:28:15.220Z,1.83
2018-05-25T04:30:44.997Z,1.73
2018-05-25T04:33:15.211Z,1.70
2018-05-25T04:35:45.216Z,1.77
2018-05-25T04:38:15.048Z,1.40
2018-05-25T04:40:44.845Z,1.70
2018-05-25T04:43:15.239Z,1.20
2018-05-25T04:45:44.746Z,1.10
2018-05-25T04:48:15.246Z,1.30
2018-05-25T04:50:47.025Z,1.13
2018-05-25T04:53:17.726Z,1.03
2018-05-25T04:55:48.465Z,0.97
2018-05-25T04:58:17.912Z,0.90
2018-05-25T05:00:50.489Z,1.10
2018-05-25T05:03:21.428Z,1.10
2018-05-25T05:05:51.908Z,1.33
2018-05-25T05:08:21.593Z,1.00
2018-05-25T05:10:53.380Z,1.10
2018-05-25T05:13:25.348Z,1.50
2018-05-25T05:15:55.835Z,1.30
2018-05-25T05:18:26.822Z,1.10
2018-05-25T05:20:57.671Z,1.10
2018-05-25T05:23:28.785Z,0.93
2018-05-25T05:25:58.542Z,1.30
2018-05-25T05:28:29.940Z,1.23
2018-05-25T05:31:00.128Z,1.40
2018-05-25T05:33:32.826Z,1.40
2018-05-25T05:36:04.972Z,1.40
2018-05-25T05:38:34.696Z,1.13
2018-05-25T05:41:04.809Z,1.43
2018-05-25T05:43:35.839Z,1.30
2018-05-25T05:46:05.957Z,1.30
2018-05-25T05:48:36.731Z,1.13
2018-05-25T05:51:06.937Z,1.37
2018-05-25T05:53:36.753Z,1.17
2018-05-25T05:56:07.825Z,1.43
2018-05-25T05:58:37.940Z,1.17
2018-05-25T06:01:07.420Z,1.77
2018-05-25T06:03:37.689Z,1.13
2018-05-25T06:06:07.588Z,1.10
2018-05-25T06:08:37.108Z,1.37
2018-05-25T06:11:08.640Z,1.30
2018-05-25T06:13:39.820Z,1.60
2018-05-25T06:16:10.252Z,1.33
2018-05-25T06:18:40.421Z,1.43
2018-05-25T06:21:11.872Z,1.30
2018-05-25T06:23:41.386Z,1.50
2018-05-25T06:26:11.224Z,1.40
2018-05-25T06:28:42.195Z,1.10
2018-05-25T06:31:11.821Z,1.77
2018-05-25T06:33:41.424Z,1.37
2018-05-25T06:36:12.542Z,1.27
2018-05-25T06:38:42.125Z,1.93
2018-05-25T06:41:12.550Z,1.70
2018-05-25T06:43:41.880Z,1.10
2018-05-25T06:46:11.600Z,1.47
2018-05-25T06:48:43.174Z,1.70
2018-05-25T06:51:13.348Z,1.63
2018-05-25T06:53:43.335Z,1.67
2018-05-25T06:56:14.502Z,1.50
2018-05-25T06:58:44.977Z,1.67
2018-05-25T07:01:14.829Z,1.60
2018-05-25T07:03:45.424Z,1.50
2018-05-25T07:06:17.378Z,1.67
2018-05-25T07:08:48.353Z,1.90
2018-05-25T07:11:18.816Z,1.60
2018-05-25T07:13:50.189Z,1.60
2018-05-25T07:16:20.005Z,1.53
2018-05-25T07:18:50.428Z,1.80
2018-05-25T07:21:20.479Z,1.77
2018-05-25T07:23:50.182Z,1.60
2018-05-25T07:26:20.508Z,1.90
2018-05-25T07:28:50.186Z,1.80
2018-05-25T07:31:19.752Z,1.40
2018-05-25T07:33:50.901Z,1.97
2018-05-25T07:36:20.593Z,1.77
2018-05-25T07:38:50.299Z,2.07
2018-05-25T07:41:19.657Z,2.00
2018-05-25T07:43:49.232Z,2.30
2018-05-25T07:46:19.136Z,2.10
2018-05-25T07:48:51.354Z,2.03
2018-05-25T07:51:22.363Z,1.87
2018-05-25T07:53:51.976Z,1.90
2018-05-25T07:56:23.232Z,2.00
2018-05-25T07:58:52.733Z,2.03
2018-05-25T08:01:24.948Z,2.30
2018-05-25T08:03:55.032Z,2.03
2018-05-25T08:06:28.399Z,1.80
2018-05-25T08:08:58.268Z,2.40
2018-05-25T08:11:28.288Z,2.30
2018-05-25T08:13:59.908Z,2.00
2018-05-25T08:16:30.343Z,1.73
2018-05-25T08:18:59.944Z,1.80
2018-05-25T08:21:30.626Z,2.13
2018-05-25T08:24:00.850Z,1.97
2018-05-25T08:26:32.906Z,2.03
2018-05-25T08:29:03.030Z,2.00
2018-05-25T08:31:33.493Z,1.90
2018-05-25T08:34:03.139Z,2.07
2018-05-25T08:36:32.641Z,1.90
2018-05-25T08:39:05.071Z,2.30
2018-05-25T08:41:37.853Z,1.80
2018-05-25T08:44:08.025Z,2.00
2018-05-25T08:46:37.576Z,2.33
2018-05-25T08:51:41.539Z,2.03
2018-05-25T08:54:12.152Z,1.80
2018-05-25T08:56:41.724Z,1.83
2018-05-25T08:59:13.233Z,1.87
2018-05-25T09:01:42.812Z,2.10
2018-05-25T09:04:13.307Z,1.90
2018-05-25T09:06:42.864Z,1.60
2018-05-25T09:09:12.504Z,1.70
2018-05-25T09:11:41.891Z,1.83
2018-05-25T09:14:13.185Z,2.00
2018-05-25T09:16:43.295Z,1.87
2018-05-25T09:19:13.296Z,1.70
2018-05-25T09:21:43.643Z,2.40
2018-05-25T09:24:13.547Z,2.10
2018-05-25T09:26:43.062Z,2.10
2018-05-25T09:29:12.836Z,2.17
2018-05-25T09:31:43.025Z,2.00
2018-05-25T09:34:14.068Z,2.30
2018-05-25T09:36:43.712Z,2.40
2018-05-25T09:39:13.502Z,2.00
2018-05-25T09:41:43.027Z,2.15
2018-05-25T09:44:13.228Z,1.80
2018-05-25T09:46:42.849Z,2.40
2018-05-25T09:49:12.787Z,2.40
2018-05-25T09:51:42.004Z,2.30
2018-05-25T09:54:13.212Z,1.97
2018-05-25T09:56:48.759Z,1.90
2018-05-25T09:59:18.834Z,2.42
2018-05-25T10:01:50.999Z,2.17
2018-05-25T10:04:21.167Z,2.17
2018-05-25T10:06:50.705Z,2.42
2018-05-25T10:09:20.317Z,2.45
2018-05-25T10:11:51.389Z,2.00
2018-05-25T10:14:21.622Z,2.42
2018-05-25T10:16:51.364Z,2.15
2018-05-25T10:19:20.908Z,2.50
2018-05-25T10:21:51.115Z,2.22
2018-05-25T10:24:22.157Z,2.40
2018-05-25T10:26:51.592Z,1.90
2018-05-25T10:29:22.006Z,2.42
2018-05-25T10:31:51.672Z,2.35
2018-05-25T10:34:21.240Z,2.20
2018-05-25T10:36:51.670Z,2.58
2018-05-25T10:39:21.689Z,2.25
2018-05-25T10:41:51.508Z,2.40
2018-05-25T10:44:21.000Z,2.97
2018-05-25T10:46:51.247Z,2.72
2018-05-25T10:49:20.945Z,2.60
2018-05-25T10:51:50.976Z,2.05
2018-05-25T10:54:22.100Z,3.10
2018-05-25T10:56:52.536Z,2.50
2018-05-25T10:59:24.046Z,2.40
2018-05-25T11:01:54.627Z,2.55
2018-05-25T11:04:27.512Z,2.67
2018-05-25T11:06:56.901Z,3.10
2018-05-25T11:09:27.059Z,2.30
2018-05-25T11:11:56.854Z,2.47
2018-05-25T11:14:26.365Z,2.50
2018-05-25T11:16:58.172Z,2.33
2018-05-25T11:19:27.532Z,3.12
2018-05-25T11:21:57.974Z,2.30
2018-05-25T11:24:27.856Z,2.75
2018-05-25T11:26:58.308Z,2.45
2018-05-25T11:29:29.738Z,2.20
2018-05-25T11:32:00.108Z,2.08
2018-05-25T11:34:30.421Z,2.20
2018-05-25T11:36:59.656Z,2.10
2018-05-25T11:39:29.712Z,2.50
2018-05-25T11:41:59.304Z,2.08
2018-05-25T11:44:28.760Z,2.20
2018-05-25T11:46:58.293Z,2.25
2018-05-25T11:49:28.618Z,2.20
2018-05-25T11:51:58.168Z,2.10
2018-05-25T11:54:27.739Z,2.08
2018-05-25T11:56:56.946Z,2.08
2018-05-25T11:59:26.580Z,2.20
2018-05-25T12:01:57.724Z,1.98
2018-05-25T12:04:27.256Z,1.90
2018-05-25T12:06:57.638Z,2.70
2018-05-25T12:09:27.248Z,2.25
2018-05-25T12:11:56.768Z,3.47
2018-05-25T12:14:27.391Z,2.00
2018-05-25T12:16:57.353Z,2.00
2018-05-25T12:19:26.802Z,2.22
2018-05-25T12:21:56.318Z,2.50
2018-05-25T12:24:25.876Z,2.00
2018-05-25T12:26:55.456Z,1.90
2018-05-25T12:29:24.851Z,2.08
2018-05-25T12:31:54.925Z,2.15
2018-05-25T12:34:24.780Z,2.37
2018-05-25T12:36:54.507Z,2.33
2018-05-25T12:39:24.148Z,2.35
2018-05-25T12:41:54.634Z,2.22
2018-05-25T12:44:24.164Z,1.87
2018-05-25T12:46:53.572Z,2.72
2018-05-25T12:49:23.744Z,2.05
2018-05-25T12:51:53.388Z,1.77
2018-05-25T12:54:23.018Z,1.87
2018-05-25T12:56:52.248Z,1.75
2018-05-25T12:59:21.760Z,1.90
2018-05-25T13:01:51.352Z,2.00
2018-05-25T13:04:21.085Z,2.15
2018-05-25T13:06:51.565Z,2.20
2018-05-25T13:09:21.797Z,2.00
2018-05-25T13:11:52.362Z,1.75
2018-05-25T13:14:23.388Z,1.95
2018-05-25T13:16:52.906Z,1.90
2018-05-25T13:19:23.169Z,2.70
2018-05-25T13:21:52.749Z,2.00
2018-05-25T13:24:22.057Z,2.58
2018-05-25T13:26:51.260Z,1.90
2018-05-25T13:29:20.736Z,2.50
2018-05-25T13:31:50.016Z,2.12
2018-05-25T13:34:19.540Z,2.08
2018-05-25T13:36:50.611Z,2.33
2018-05-25T13:39:20.194Z,2.05
2018-05-25T13:41:49.406Z,1.98
2018-05-25T13:44:18.914Z,2.05
2018-05-25T13:46:48.356Z,2.33
2018-05-25T13:49:17.956Z,2.10
2018-05-25T13:51:47.157Z,2.03
2018-05-25T13:54:16.604Z,2.62
2018-05-25T13:56:46.860Z,1.80
2018-05-25T13:59:17.045Z,1.83
2018-05-25T14:01:46.328Z,2.28
2018-05-25T14:04:16.445Z,2.55
2018-05-25T14:06:46.544Z,1.75
2018-05-25T14:09:16.860Z,1.83
2018-05-25T14:11:47.204Z,1.62
2018-05-25T14:14:17.444Z,1.98
2018-05-25T14:16:47.051Z,1.90
2018-05-25T14:19:17.278Z,2.20
2018-05-25T14:21:46.488Z,1.67
2018-05-25T14:24:17.094Z,2.10
2018-05-25T14:26:47.456Z,2.00
2018-05-25T14:29:17.362Z,2.10
2018-05-25T14:31:47.289Z,2.00
2018-05-25T14:34:17.428Z,2.25
2018-05-25T14:36:46.988Z,1.70
2018-05-25T14:39:16.521Z,2.12
2018-05-25T14:41:46.066Z,2.08
2018-05-25T14:44:15.280Z,2.30
2018-05-25T14:46:44.832Z,1.80
2018-05-25T14:49:14.354Z,1.75
2018-05-25T14:51:43.797Z,1.80
2018-05-25T14:54:13.473Z,1.60
2018-05-25T14:56:42.961Z,1.90
2018-05-25T14:59:12.472Z,1.77
2018-05-25T15:01:41.684Z,1.60
2018-05-25T15:04:10.944Z,1.80
2018-05-25T15:06:41.035Z,2.53
2018-05-25T15:09:10.530Z,1.70
2018-05-25T15:11:40.040Z,1.55
2018-05-25T15:14:09.528Z,1.80
2018-05-25T15:16:39.140Z,1.85
2018-05-25T15:19:08.752Z,1.75
2018-05-25T15:21:38.778Z,1.70
2018-05-25T15:24:08.276Z,1.92
2018-05-25T15:26:38.326Z,1.70
2018-05-25T15:29:07.909Z,1.70
2018-05-25T15:31:37.520Z,1.52
2018-05-25T15:34:07.168Z,1.83
2018-05-25T15:36:36.542Z,1.67
2018-05-25T15:39:05.802Z,1.70
2018-05-25T15:41:35.837Z,1.80
2018-05-25T15:44:05.818Z,1.80
2018-05-25T15:46:35.129Z,1.90
2018-05-25T15:49:07.568Z,1.52
2018-05-25T15:51:37.197Z,1.50
2018-05-25T15:54:07.003Z,1.98
2018-05-25T15:56:36.912Z,1.70
2018-05-25T15:59:07.877Z,1.90
2018-05-25T16:01:37.098Z,1.83
2018-05-25T16:04:06.560Z,1.55
2018-05-25T16:06:36.028Z,1.98
2018-05-25T16:09:05.239Z,1.55
2018-05-25T16:11:34.833Z,1.62
2018-05-25T16:14:05.889Z,1.70
2018-05-25T16:16:35.098Z,1.80
2018-05-25T16:19:06.584Z,1.70
2018-05-25T16:21:37.492Z,2.97
2018-05-25T16:24:07.344Z,2.10
2018-05-25T16:26:36.977Z,1.65
2018-05-25T16:29:06.591Z,1.90
2018-05-25T16:31:37.466Z,1.83
2018-05-25T16:34:08.054Z,1.52
2018-05-25T16:36:37.501Z,1.73
2018-05-25T16:39:07.253Z,1.60
2018-05-25T16:41:36.777Z,1.85
2018-05-25T16:44:06.281Z,1.77
2018-05-25T16:46:35.690Z,1.30
2018-05-25T16:49:05.044Z,1.92
2018-05-25T16:51:35.424Z,1.85
2018-05-25T16:54:04.665Z,2.03
2018-05-25T16:56:34.153Z,1.60
2018-05-25T16:59:04.508Z,1.40
2018-05-25T17:01:34.711Z,1.30
2018-05-25T17:04:04.423Z,1.70
2018-05-25T17:06:34.864Z,1.85
2018-05-25T17:09:04.368Z,1.80
2018-05-25T17:11:33.970Z,1.83
2018-05-25T17:14:03.560Z,1.40
2018-05-25T17:16:33.617Z,1.73
2018-05-25T17:19:07.615Z,1.42
2018-05-25T17:21:37.058Z,1.73
2018-05-25T17:24:06.612Z,1.65
2018-05-25T17:26:36.146Z,2.72
2018-05-25T17:29:05.884Z,2.53
2018-05-25T17:31:35.396Z,2.37
2018-05-25T17:34:05.183Z,1.27
2018-05-25T17:36:37.852Z,1.80
2018-05-25T17:39:07.383Z,1.48
2018-05-25T17:41:40.340Z,1.52
2018-05-25T17:44:10.162Z,1.30
2018-05-25T17:46:39.673Z,1.60
2018-05-25T17:49:09.314Z,1.70
2018-05-25T17:51:38.865Z,2.60
2018-05-25T17:54:08.400Z,2.37
2018-05-25T17:56:37.756Z,1.70
2018-05-25T17:59:07.027Z,1.80
2018-05-25T18:01:51.159Z,1.50
2018-05-25T18:07:04.790Z,1.58
2018-05-25T18:09:34.420Z,1.45
2018-05-25T18:12:04.966Z,1.20
2018-05-25T18:14:34.782Z,1.75
2018-05-25T18:17:04.272Z,1.50
2018-05-25T18:19:34.186Z,1.48
2018-05-25T18:22:04.821Z,1.50
2018-05-25T18:24:34.353Z,1.87
2018-05-25T18:27:03.945Z,1.50
2018-05-25T18:29:33.554Z,1.50
2018-05-25T18:32:03.069Z,1.50
2018-05-25T18:34:33.198Z,1.42
2018-05-25T18:37:04.332Z,1.50
2018-05-25T18:39:33.840Z,1.58
2018-05-25T18:42:03.374Z,1.30
2018-05-25T18:44:32.864Z,1.58
2018-05-25T18:47:02.397Z,1.83
2018-05-25T18:49:31.877Z,2.37
2018-05-25T18:52:01.511Z,1.25
2018-05-25T18:54:33.236Z,1.55
2018-05-25T18:57:02.465Z,1.70
2018-05-25T18:59:32.105Z,1.50
2018-05-25T19:02:01.685Z,1.40
2018-05-25T19:04:30.926Z,1.55
2018-05-25T19:07:01.344Z,1.60
2018-05-25T19:09:30.941Z,1.60
2018-05-25T19:12:00.533Z,1.87
2018-05-25T19:14:30.369Z,1.93
2018-05-25T19:16:59.852Z,1.80
2018-05-25T19:19:29.081Z,2.30
2018-05-25T19:21:58.770Z,2.10
2018-05-25T19:24:28.319Z,2.10
2018-05-25T19:26:57.888Z,2.13
2018-05-25T19:29:27.604Z,2.90
2018-05-25T19:31:57.242Z,2.40
2018-05-25T19:34:27.261Z,2.17
2018-05-25T19:36:57.382Z,2.67
2018-05-25T19:39:26.978Z,2.37
2018-05-25T19:41:57.403Z,2.80
2018-05-25T19:44:26.945Z,2.37
2018-05-25T19:46:56.457Z,2.90
2018-05-25T19:49:27.496Z,2.87
2018-05-25T19:51:57.283Z,3.17
2018-05-25T19:54:27.708Z,2.77
2018-05-25T19:56:57.804Z,2.30
2018-05-25T19:59:27.445Z,2.83
2018-05-25T20:01:56.955Z,2.50
2018-05-25T20:04:30.529Z,2.40
2018-05-25T20:07:00.097Z,2.70
2018-05-25T20:09:29.901Z,2.90
2018-05-25T20:11:59.623Z,4.13
2018-05-25T20:14:29.632Z,4.27
2018-05-25T20:16:59.570Z,6.23
2018-05-25T20:19:30.105Z,5.17
2018-05-25T20:22:01.237Z,5.80
2018-05-25T20:24:30.928Z,5.97
2018-05-25T20:27:00.360Z,6.03
2018-05-25T20:29:30.045Z,6.23
2018-05-25T20:31:59.528Z,6.00
2018-05-25T20:34:29.440Z,5.37
2018-05-25T20:36:59.825Z,5.37
2018-05-25T20:39:29.352Z,5.47
2018-05-25T20:41:58.876Z,4.87
2018-05-25T20:44:28.335Z,5.27
2018-05-25T20:46:58.636Z,3.97
2018-05-25T20:49:28.199Z,4.10
2018-05-25T20:51:59.027Z,4.50
2018-05-25T20:54:29.104Z,3.00
2018-05-25T20:56:58.658Z,3.47
2018-05-25T20:59:28.660Z,3.90
2018-05-25T21:01:58.424Z,4.43
2018-05-25T21:04:27.889Z,4.33
2018-05-25T21:06:58.180Z,4.03
2018-05-25T21:09:28.662Z,4.30
2018-05-25T21:11:58.883Z,4.23
2018-05-25T21:14:28.576Z,3.07
2018-05-25T21:16:58.708Z,3.03
2018-05-25T21:19:29.036Z,3.03
2018-05-25T21:22:00.090Z,2.80
2018-05-25T21:24:29.581Z,2.53
2018-05-25T21:26:59.096Z,2.80
2018-05-25T21:29:29.865Z,2.50
2018-05-25T21:31:59.492Z,2.67
2018-05-25T21:34:29.253Z,2.57
2018-05-25T21:36:58.998Z,2.67
2018-05-25T21:39:28.309Z,3.00
2018-05-25T21:41:58.712Z,2.80
2018-05-25T21:44:28.750Z,2.80
2018-05-25T21:46:58.064Z,2.70
2018-05-25T21:49:27.548Z,2.27
2018-05-25T21:51:57.175Z,2.13
2018-05-25T21:54:26.877Z,2.47
2018-05-25T21:56:56.640Z,2.17
2018-05-25T21:59:26.326Z,2.40
2018-05-25T22:01:55.760Z,2.40
2018-05-25T22:07:01.398Z,2.63
2018-05-25T22:09:30.936Z,2.57
2018-05-25T22:12:00.548Z,2.30
2018-05-25T22:14:30.112Z,2.10
2018-05-25T22:17:00.648Z,2.70
2018-05-25T22:19:30.131Z,2.90
2018-05-25T22:22:00.937Z,2.40
2018-05-25T22:27:11.414Z,2.30
2018-05-25T22:29:42.748Z,2.83
2018-05-25T22:32:13.486Z,2.30
2018-05-25T22:34:44.301Z,2.23
2018-05-25T22:37:13.938Z,2.47
2018-05-25T22:39:44.345Z,2.30
2018-05-25T22:42:20.687Z,2.50
2018-05-25T22:44:55.975Z,2.70
2018-05-25T22:47:32.048Z,2.33
2018-05-25T22:50:07.360Z,2.60
2018-05-25T22:52:43.116Z,2.90
2018-05-25T22:55:12.812Z,2.63
2018-05-25T22:57:43.436Z,2.60
2018-05-25T23:00:13.163Z,2.70
2018-05-25T23:02:42.684Z,3.33
2018-05-25T23:05:12.911Z,2.83
2018-05-25T23:07:43.140Z,2.80
2018-05-25T23:10:14.800Z,2.73
2018-05-25T23:12:44.276Z,2.67
2018-05-25T23:15:13.795Z,2.90
2018-05-25T23:17:43.404Z,2.63
2018-05-25T23:20:13.045Z,2.63
2018-05-25T23:22:43.137Z,2.80
2018-05-25T23:25:13.465Z,2.73
2018-05-25T23:27:43.108Z,2.97
2018-05-25T23:30:12.692Z,2.83
2018-05-25T23:32:42.966Z,3.10
2018-05-25T23:35:12.725Z,3.30
2018-05-25T23:37:43.208Z,3.00
2018-05-25T23:40:13.357Z,3.27
2018-05-25T23:42:43.017Z,2.87
2018-05-25T23:45:13.170Z,2.87
2018-05-25T23:47:42.937Z,3.10
2018-05-25T23:50:13.477Z,3.00
2018-05-25T23:52:43.077Z,3.17
2018-05-25T23:55:13.013Z,2.80
2018-05-25T23:57:43.028Z,2.80
